createdAt,value
2017-11-30T00:01:56.219Z,25.43
2017-11-30T00:04:23.667Z,25.87
2017-11-30T00:06:51.117Z,25.00
2017-11-30T00:09:18.562Z,23.17
2017-11-30T00:11:46.019Z,24.00
2017-11-30T00:14:13.648Z,23.03
2017-11-30T00:16:41.072Z,22.40
2017-11-30T00:19:08.508Z,24.70
2017-11-30T00:21:35.963Z,24.80
2017-11-30T00:24:03.403Z,25.50
2017-11-30T00:26:30.838Z,25.63
2017-11-30T00:28:58.706Z,24.47
2017-11-30T00:31:26.542Z,23.90
2017-11-30T00:33:53.975Z,25.80
2017-11-30T00:36:21.447Z,24.60
2017-11-30T00:38:48.887Z,25.40
2017-11-30T00:41:16.329Z,25.90
2017-11-30T00:43:43.796Z,23.33
2017-11-30T00:46:11.220Z,24.03
2017-11-30T00:48:39.040Z,25.20
2017-11-30T00:51:06.652Z,24.93
2017-11-30T00:53:34.094Z,26.47
2017-11-30T00:56:01.543Z,24.17
2017-11-30T00:58:29.069Z,24.00
2017-11-30T01:00:56.921Z,25.70
2017-11-30T01:03:24.367Z,26.60
2017-11-30T01:05:52.001Z,25.50
2017-11-30T01:08:19.450Z,25.03
2017-11-30T01:10:46.908Z,24.50
2017-11-30T01:13:14.388Z,24.10
2017-11-30T01:15:41.839Z,26.07
2017-11-30T01:18:09.322Z,24.30
2017-11-30T01:20:37.179Z,22.70
2017-11-30T01:23:04.613Z,23.13
2017-11-30T01:25:32.075Z,25.57
2017-11-30T01:27:59.527Z,24.87
2017-11-30T01:30:27.018Z,25.13
2017-11-30T01:32:54.856Z,25.07
2017-11-30T01:35:22.307Z,23.73
2017-11-30T01:37:49.755Z,24.47
2017-11-30T01:40:17.214Z,23.20
2017-11-30T01:42:44.672Z,25.03
2017-11-30T01:45:12.122Z,23.83
2017-11-30T01:47:39.742Z,24.47
2017-11-30T01:50:07.282Z,24.27
2017-11-30T01:52:34.731Z,24.40
2017-11-30T01:55:02.597Z,23.80
2017-11-30T01:57:30.460Z,24.70
2017-11-30T01:59:58.308Z,23.60
2017-11-30T02:02:25.795Z,23.20
2017-11-30T02:04:53.241Z,23.07
2017-11-30T02:07:21.120Z,22.43
2017-11-30T02:09:48.595Z,24.50
2017-11-30T02:12:16.038Z,24.43
2017-11-30T02:14:43.515Z,25.03
2017-11-30T02:17:10.997Z,23.63
2017-11-30T02:19:38.461Z,23.80
2017-11-30T02:22:05.899Z,25.57
2017-11-30T02:24:33.351Z,24.37
2017-11-30T02:27:00.816Z,22.70
2017-11-30T02:29:28.271Z,20.60
2017-11-30T02:31:55.748Z,21.50
2017-11-30T02:34:23.599Z,23.55
2017-11-30T02:36:51.056Z,22.80
2017-11-30T02:39:18.569Z,22.93
2017-11-30T02:41:46.043Z,20.63
2017-11-30T02:44:13.497Z,20.30
2017-11-30T02:46:41.129Z,19.13
2017-11-30T02:49:08.580Z,19.63
2017-11-30T02:51:36.034Z,22.30
2017-11-30T02:54:03.557Z,20.50
2017-11-30T02:56:31.139Z,20.87
2017-11-30T02:58:59.165Z,19.20
2017-11-30T03:01:26.615Z,19.90
2017-11-30T03:03:54.059Z,19.03
2017-11-30T03:06:21.514Z,18.07
2017-11-30T03:08:48.974Z,16.80
2017-11-30T03:11:16.446Z,17.10
2017-11-30T03:13:43.924Z,16.90
2017-11-30T03:16:11.385Z,16.67
2017-11-30T03:18:38.874Z,17.67
2017-11-30T03:21:06.328Z,16.60
2017-11-30T03:23:33.763Z,18.33
2017-11-30T03:26:01.206Z,17.30
2017-11-30T03:28:29.047Z,17.37
2017-11-30T03:30:56.490Z,18.10
2017-11-30T03:33:23.930Z,17.60
2017-11-30T03:35:51.371Z,18.50
2017-11-30T03:38:18.816Z,17.23
2017-11-30T03:40:46.278Z,19.20
2017-11-30T03:43:13.714Z,18.20
2017-11-30T03:45:41.166Z,19.17
2017-11-30T03:48:08.662Z,19.30
2017-11-30T03:50:36.142Z,18.77
2017-11-30T03:53:03.601Z,20.73
2017-11-30T03:55:31.055Z,17.60
2017-11-30T03:57:58.891Z,20.50
2017-11-30T04:00:26.381Z,19.27
2017-11-30T04:02:54.232Z,19.40
2017-11-30T04:05:21.669Z,21.00
2017-11-30T04:07:49.118Z,18.70
2017-11-30T04:10:17.511Z,21.70
2017-11-30T04:12:44.969Z,20.07
2017-11-30T04:15:12.432Z,23.23
2017-11-30T04:17:39.886Z,20.90
2017-11-30T04:20:07.341Z,21.80
2017-11-30T04:22:34.801Z,20.80
2017-11-30T04:25:02.260Z,20.97
2017-11-30T04:27:30.105Z,19.97
2017-11-30T04:29:57.564Z,19.67
2017-11-30T04:32:26.047Z,20.10
2017-11-30T04:34:53.503Z,19.27
2017-11-30T04:37:20.951Z,21.67
2017-11-30T04:39:48.411Z,20.60
2017-11-30T04:42:15.865Z,20.20
2017-11-30T04:44:43.312Z,21.90
2017-11-30T04:47:10.940Z,20.30
2017-11-30T04:49:38.393Z,20.90
2017-11-30T04:52:05.838Z,16.60
2017-11-30T04:54:33.298Z,15.03
2017-11-30T04:57:00.744Z,17.00
2017-11-30T04:59:28.224Z,17.20
2017-11-30T05:01:55.680Z,17.13
2017-11-30T05:04:23.136Z,16.13
2017-11-30T05:06:50.611Z,17.20
2017-11-30T05:09:18.075Z,19.40
2017-11-30T05:11:45.532Z,17.83
2017-11-30T05:14:12.979Z,16.50
2017-11-30T05:16:40.413Z,17.73
2017-11-30T05:19:07.865Z,17.70
2017-11-30T05:21:35.647Z,18.60
2017-11-30T05:24:03.106Z,19.87
2017-11-30T05:26:30.551Z,17.67
2017-11-30T05:28:58.006Z,18.80
2017-11-30T05:31:25.450Z,20.70
2017-11-30T05:33:52.913Z,21.00
2017-11-30T05:36:20.677Z,18.50
2017-11-30T05:38:48.122Z,19.98
2017-11-30T05:41:15.560Z,20.60
2017-11-30T05:43:43.047Z,20.53
2017-11-30T05:46:10.504Z,20.17
2017-11-30T05:48:37.950Z,20.35
2017-11-30T05:51:05.412Z,19.27
2017-11-30T05:53:32.870Z,20.55
2017-11-30T05:56:00.328Z,19.57
2017-11-30T05:58:27.877Z,18.92
2017-11-30T06:00:55.336Z,19.10
2017-11-30T06:03:22.808Z,19.40
2017-11-30T06:05:50.296Z,19.37
2017-11-30T06:08:17.752Z,20.67
2017-11-30T06:10:45.215Z,19.73
2017-11-30T06:13:12.663Z,20.90
2017-11-30T06:15:40.107Z,22.50
2017-11-30T06:18:07.582Z,21.23
2017-11-30T06:20:35.044Z,22.13
2017-11-30T06:23:02.519Z,23.38
2017-11-30T06:25:30.140Z,20.77
2017-11-30T06:27:57.563Z,25.00
2017-11-30T06:30:25.011Z,24.27
2017-11-30T06:32:52.571Z,23.57
2017-11-30T06:35:20.002Z,25.40
2017-11-30T06:37:47.447Z,22.08
2017-11-30T06:40:15.726Z,21.90
2017-11-30T06:42:43.187Z,24.90
2017-11-30T06:45:10.693Z,23.23
2017-11-30T06:47:39.433Z,22.42
2017-11-30T06:50:06.905Z,22.83
2017-11-30T06:52:34.360Z,23.30
2017-11-30T06:55:02.112Z,23.17
2017-11-30T06:57:29.556Z,24.98
2017-11-30T06:59:56.998Z,22.10
2017-11-30T07:02:24.443Z,26.73
2017-11-30T07:04:51.890Z,23.50
2017-11-30T07:07:19.373Z,25.03
2017-11-30T07:09:46.834Z,24.73
2017-11-30T07:12:14.278Z,23.77
2017-11-30T07:14:41.734Z,24.97
2017-11-30T07:17:09.179Z,25.70
2017-11-30T07:19:36.632Z,26.93
2017-11-30T07:22:04.170Z,22.95
2017-11-30T07:24:31.606Z,22.63
2017-11-30T07:26:59.461Z,24.17
2017-11-30T07:29:26.920Z,23.87
2017-11-30T07:31:54.394Z,24.20
2017-11-30T07:34:22.229Z,67.53
2017-11-30T07:36:49.692Z,24.40
2017-11-30T07:39:17.135Z,23.23
2017-11-30T07:41:44.584Z,21.63
2017-11-30T07:44:12.018Z,24.30
2017-11-30T07:46:39.489Z,21.60
2017-11-30T07:49:06.939Z,24.27
2017-11-30T07:51:34.373Z,23.13
2017-11-30T07:54:01.846Z,23.00
2017-11-30T07:56:29.285Z,24.83
2017-11-30T07:58:56.723Z,24.30
2017-11-30T08:01:24.262Z,22.37
2017-11-30T08:03:53.209Z,24.10
2017-11-30T08:06:20.660Z,24.30
2017-11-30T08:08:48.101Z,22.80
2017-11-30T08:11:16.467Z,23.40
2017-11-30T08:13:43.908Z,23.47
2017-11-30T08:16:11.340Z,21.00
2017-11-30T08:18:39.491Z,21.07
2017-11-30T08:21:06.929Z,23.90
2017-11-30T08:23:34.388Z,23.70
2017-11-30T08:26:02.754Z,23.67
2017-11-30T08:28:30.195Z,20.07
2017-11-30T08:30:57.691Z,19.97
2017-11-30T08:33:25.231Z,19.40
2017-11-30T08:35:52.671Z,18.73
2017-11-30T08:38:20.117Z,19.30
2017-11-30T08:40:47.570Z,18.50
2017-11-30T08:43:15.001Z,18.47
2017-11-30T08:45:42.451Z,19.12
2017-11-30T08:48:10.274Z,21.03
2017-11-30T08:50:37.732Z,19.47
2017-11-30T08:53:05.167Z,17.60
2017-11-30T08:55:32.614Z,16.07
2017-11-30T08:58:00.149Z,17.50
2017-11-30T09:00:27.586Z,15.50
2017-11-30T09:02:55.417Z,14.57
2017-11-30T09:05:22.886Z,15.57
2017-11-30T09:07:50.321Z,14.43
2017-11-30T09:10:17.750Z,13.50
2017-11-30T09:12:45.209Z,17.67
2017-11-30T09:15:12.646Z,14.33
2017-11-30T09:17:40.079Z,12.67
2017-11-30T09:20:07.935Z,15.50
2017-11-30T09:22:35.372Z,15.53
2017-11-30T09:25:02.849Z,15.47
2017-11-30T09:27:30.414Z,17.43
2017-11-30T09:29:58.245Z,40.90
2017-11-30T09:32:25.698Z,15.83
2017-11-30T09:34:53.149Z,14.27
2017-11-30T09:37:20.880Z,16.73
2017-11-30T09:39:48.322Z,15.73
2017-11-30T09:42:15.752Z,16.77
2017-11-30T09:44:44.085Z,15.20
2017-11-30T09:47:11.808Z,16.30
2017-11-30T09:49:39.628Z,15.57
2017-11-30T09:52:07.095Z,16.70
2017-11-30T09:54:34.517Z,15.90
2017-11-30T09:57:01.962Z,17.43
2017-11-30T09:59:29.517Z,16.50
2017-11-30T10:01:56.960Z,17.30
2017-11-30T10:04:24.385Z,17.00
2017-11-30T10:06:52.233Z,17.73
2017-11-30T10:09:19.674Z,15.43
2017-11-30T10:11:47.126Z,14.20
2017-11-30T10:14:14.587Z,16.33
2017-11-30T10:16:42.029Z,14.70
2017-11-30T10:19:10.121Z,12.87
2017-11-30T10:21:37.571Z,14.07
2017-11-30T10:24:04.999Z,14.83
2017-11-30T10:26:32.448Z,16.17
2017-11-30T10:29:00.218Z,13.83
2017-11-30T10:31:28.007Z,15.20
2017-11-30T10:33:55.426Z,13.63
2017-11-30T10:36:22.994Z,13.90
2017-11-30T10:38:50.430Z,13.73
2017-11-30T10:41:17.877Z,13.30
2017-11-30T10:43:45.351Z,11.50
2017-11-30T10:46:12.792Z,12.30
2017-11-30T10:48:40.239Z,13.10
2017-11-30T10:51:08.018Z,11.77
2017-11-30T10:53:35.521Z,14.23
2017-11-30T10:56:02.961Z,13.07
2017-11-30T10:58:30.818Z,15.37
2017-11-30T11:00:58.290Z,13.70
2017-11-30T11:03:25.741Z,14.53
2017-11-30T11:05:53.209Z,13.30
2017-11-30T11:08:20.797Z,13.57
2017-11-30T11:10:48.611Z,14.43
2017-11-30T11:13:16.047Z,12.83
2017-11-30T11:15:43.479Z,15.50
2017-11-30T11:18:10.913Z,13.93
2017-11-30T11:20:38.769Z,14.70
2017-11-30T11:23:06.210Z,14.90
2017-11-30T11:25:33.645Z,19.50
2017-11-30T11:28:01.102Z,16.60
2017-11-30T11:30:28.543Z,19.07
2017-11-30T11:32:56.087Z,19.50
2017-11-30T11:35:23.787Z,18.47
2017-11-30T11:37:51.230Z,16.47
2017-11-30T11:40:18.661Z,17.20
2017-11-30T11:42:47.183Z,17.20
2017-11-30T11:45:14.614Z,18.40
2017-11-30T11:47:42.055Z,19.10
2017-11-30T11:50:09.514Z,18.03
2017-11-30T11:52:36.957Z,18.10
2017-11-30T11:55:04.398Z,19.53
2017-11-30T11:57:31.829Z,20.40
2017-11-30T11:59:59.659Z,18.33
2017-11-30T12:02:27.227Z,20.03
2017-11-30T12:04:54.907Z,17.47
2017-11-30T12:07:22.757Z,16.53
2017-11-30T12:09:50.477Z,16.07
2017-11-30T12:12:17.919Z,19.63
2017-11-30T12:14:50.302Z,17.80
2017-11-30T12:17:30.053Z,18.67
2017-11-30T12:19:59.153Z,18.90
2017-11-30T12:22:26.593Z,20.70
2017-11-30T12:24:54.044Z,20.37
2017-11-30T12:27:21.474Z,20.50
2017-11-30T12:29:49.885Z,18.53
2017-11-30T12:32:17.317Z,18.93
2017-11-30T12:34:44.925Z,20.00
2017-11-30T12:37:12.429Z,18.97
2017-11-30T12:39:39.813Z,19.33
2017-11-30T12:42:07.243Z,21.00
2017-11-30T12:44:34.789Z,21.90
2017-11-30T12:47:02.332Z,20.10
2017-11-30T12:49:30.145Z,19.00
2017-11-30T12:51:57.912Z,19.23
2017-11-30T12:54:25.781Z,21.00
2017-11-30T12:56:53.225Z,22.00
2017-11-30T12:59:21.081Z,21.20
2017-11-30T13:01:48.520Z,18.00
2017-11-30T13:04:15.956Z,19.00
2017-11-30T13:06:43.820Z,18.63
2017-11-30T13:09:11.681Z,18.93
2017-11-30T13:11:39.528Z,19.40
2017-11-30T13:14:06.985Z,17.23
2017-11-30T13:16:34.420Z,19.43
2017-11-30T13:19:01.948Z,18.40
2017-11-30T13:21:29.403Z,17.90
2017-11-30T13:23:56.836Z,18.23
2017-11-30T13:26:24.268Z,20.17
2017-11-30T13:28:52.391Z,18.47
2017-11-30T13:31:19.825Z,19.00
2017-11-30T13:33:47.270Z,19.03
2017-11-30T13:36:15.094Z,17.53
2017-11-30T13:38:42.524Z,17.33
2017-11-30T13:41:09.960Z,18.07
2017-11-30T13:43:37.399Z,17.33
2017-11-30T13:46:04.882Z,15.98
2017-11-30T13:48:32.320Z,16.20
2017-11-30T13:50:59.744Z,17.07
2017-11-30T13:53:27.605Z,16.80
2017-11-30T13:55:55.523Z,18.50
2017-11-30T13:58:22.957Z,15.90
2017-11-30T14:00:50.404Z,15.23
2017-11-30T14:03:17.851Z,16.63
2017-11-30T14:05:45.287Z,15.60
2017-11-30T14:08:15.788Z,16.77
2017-11-30T14:10:43.225Z,15.90
2017-11-30T14:13:10.655Z,15.07
2017-11-30T14:15:38.516Z,14.77
2017-11-30T14:18:05.961Z,13.40
2017-11-30T14:20:33.792Z,14.23
2017-11-30T14:23:01.530Z,13.70
2017-11-30T14:25:28.971Z,13.00
2017-11-30T14:27:56.405Z,13.83
2017-11-30T14:30:24.095Z,13.93
2017-11-30T14:32:51.550Z,13.10
2017-11-30T14:35:18.984Z,14.77
2017-11-30T14:37:46.416Z,15.10
2017-11-30T14:40:14.283Z,15.10
2017-11-30T14:42:41.680Z,13.97
2017-11-30T14:45:09.132Z,13.60
2017-11-30T14:47:36.564Z,13.27
2017-11-30T14:50:03.997Z,11.23
2017-11-30T14:52:31.940Z,16.87
2017-11-30T14:54:59.374Z,13.23
2017-11-30T14:57:26.832Z,12.53
2017-11-30T14:59:54.299Z,13.13
2017-11-30T15:02:21.774Z,13.10
2017-11-30T15:04:49.209Z,12.13
2017-11-30T15:07:16.672Z,13.40
2017-11-30T15:09:44.102Z,12.03
2017-11-30T15:12:11.547Z,12.60
2017-11-30T15:14:39.006Z,12.70
2017-11-30T15:17:06.460Z,13.27
2017-11-30T15:19:33.901Z,14.63
2017-11-30T15:22:01.588Z,12.23
2017-11-30T15:24:29.026Z,12.70
2017-11-30T15:26:57.289Z,13.20
2017-11-30T15:29:24.728Z,12.23
2017-11-30T15:31:52.160Z,14.03
2017-11-30T15:34:19.990Z,20.73
2017-11-30T15:36:47.446Z,19.90
2017-11-30T15:39:14.883Z,41.90
2017-11-30T15:41:42.325Z,17.40
2017-11-30T15:44:10.108Z,14.57
2017-11-30T15:46:37.545Z,13.40
2017-11-30T15:49:04.977Z,14.00
2017-11-30T15:51:32.811Z,15.17
2017-11-30T15:54:00.245Z,14.40
2017-11-30T15:56:27.688Z,14.00
2017-11-30T15:58:55.157Z,13.30
2017-11-30T16:01:22.594Z,12.50
2017-11-30T16:03:50.023Z,13.90
2017-11-30T16:06:17.482Z,13.53
2017-11-30T16:08:44.935Z,14.50
2017-11-30T16:11:12.403Z,15.27
2017-11-30T16:13:39.792Z,13.37
2017-11-30T16:16:07.222Z,13.30
2017-11-30T16:18:34.647Z,15.10
2017-11-30T16:21:02.488Z,14.77
2017-11-30T16:23:29.916Z,15.90
2017-11-30T16:25:57.360Z,16.17
2017-11-30T16:28:25.023Z,15.90
2017-11-30T16:30:52.452Z,15.37
2017-11-30T16:33:19.884Z,15.00
2017-11-30T16:35:47.892Z,15.03
2017-11-30T16:38:15.328Z,14.67
2017-11-30T16:40:42.756Z,12.00
2017-11-30T16:43:10.620Z,13.07
2017-11-30T16:45:38.444Z,13.50
2017-11-30T16:48:05.880Z,14.40
2017-11-30T16:50:33.429Z,13.50
2017-11-30T16:53:00.857Z,13.50
2017-11-30T16:55:28.693Z,13.57
2017-11-30T16:57:56.433Z,12.20
2017-11-30T17:00:23.857Z,12.23
2017-11-30T17:02:51.283Z,12.83
2017-11-30T17:05:19.133Z,14.50
2017-11-30T17:07:46.565Z,14.27
2017-11-30T17:10:13.992Z,12.37
2017-11-30T17:12:41.456Z,13.17
2017-11-30T17:15:08.886Z,13.97
2017-11-30T17:17:36.316Z,14.13
2017-11-30T17:20:04.180Z,14.13
2017-11-30T17:22:31.607Z,12.70
2017-11-30T17:24:59.041Z,11.20
2017-11-30T17:27:26.490Z,11.53
2017-11-30T17:29:53.923Z,13.80
2017-11-30T17:32:21.794Z,12.13
2017-11-30T17:34:49.694Z,14.17
2017-11-30T17:37:17.116Z,18.07
2017-11-30T17:39:44.545Z,14.13
2017-11-30T17:42:12.382Z,12.77
2017-11-30T17:44:39.811Z,13.70
2017-11-30T17:47:07.377Z,13.30
2017-11-30T17:49:34.824Z,18.07
2017-11-30T17:52:02.297Z,20.73
2017-11-30T17:54:29.735Z,19.77
2017-11-30T17:56:57.159Z,16.53
2017-11-30T17:59:24.595Z,23.83
2017-11-30T18:01:52.032Z,13.97
2017-11-30T18:04:19.492Z,15.87
2017-11-30T18:06:46.941Z,16.03
2017-11-30T18:09:14.368Z,32.43
2017-11-30T18:11:42.060Z,13.33
2017-11-30T18:14:09.557Z,12.00
2017-11-30T18:16:36.947Z,13.60
2017-11-30T18:19:04.376Z,14.33
2017-11-30T18:21:32.060Z,13.90
2017-11-30T18:23:59.488Z,13.17
2017-11-30T18:26:26.916Z,13.70
2017-11-30T18:28:54.756Z,13.50
2017-11-30T18:31:22.243Z,14.20
2017-11-30T18:33:50.064Z,10.23
2017-11-30T18:36:17.508Z,12.53
2017-11-30T18:38:45.114Z,15.07
2017-11-30T18:41:12.533Z,13.90
2017-11-30T18:43:40.002Z,16.17
2017-11-30T18:46:07.437Z,14.77
2017-11-30T18:48:34.870Z,15.33
2017-11-30T18:51:02.329Z,14.20
2017-11-30T18:53:29.761Z,15.33
2017-11-30T18:55:57.193Z,13.37
2017-11-30T18:58:25.210Z,14.37
2017-11-30T19:00:52.636Z,13.63
2017-11-30T19:03:20.066Z,14.07
2017-11-30T19:05:48.192Z,13.83
2017-11-30T19:08:15.622Z,15.47
2017-11-30T19:10:43.412Z,14.33
2017-11-30T19:13:10.844Z,16.23
2017-11-30T19:15:38.272Z,16.00
2017-11-30T19:18:07.005Z,17.10
2017-11-30T19:20:34.448Z,15.90
2017-11-30T19:23:01.893Z,13.63
2017-11-30T19:25:29.683Z,17.40
2017-11-30T19:27:57.124Z,16.27
2017-11-30T19:30:24.572Z,15.83
2017-11-30T19:32:52.002Z,16.67
2017-11-30T19:35:19.817Z,15.70
2017-11-30T19:37:47.284Z,17.67
2017-11-30T19:40:14.711Z,16.90
2017-11-30T19:42:42.149Z,19.80
2017-11-30T19:45:09.628Z,16.83
2017-11-30T19:47:37.080Z,16.03
2017-11-30T19:50:04.538Z,15.30
2017-11-30T19:52:31.996Z,13.93
2017-11-30T19:54:59.467Z,15.83
2017-11-30T19:57:27.095Z,17.83
2017-11-30T19:59:54.560Z,16.47
2017-11-30T20:02:22.009Z,18.43
2017-11-30T20:04:49.480Z,18.70
2017-11-30T20:07:16.916Z,15.80
2017-11-30T20:09:44.412Z,17.40
2017-11-30T20:12:11.866Z,55.70
2017-11-30T20:14:39.519Z,36.43
2017-11-30T20:17:06.977Z,20.83
2017-11-30T20:19:34.454Z,17.17
2017-11-30T20:22:02.013Z,20.27
2017-11-30T20:24:29.472Z,19.57
2017-11-30T20:26:56.929Z,29.07
2017-11-30T20:29:24.778Z,22.40
2017-11-30T20:31:52.232Z,18.93
2017-11-30T20:34:19.664Z,15.90
2017-11-30T20:36:47.116Z,19.03
2017-11-30T20:39:14.541Z,17.67
2017-11-30T20:41:41.976Z,17.37
2017-11-30T20:44:09.844Z,18.00
2017-11-30T20:46:37.679Z,18.17
2017-11-30T20:49:05.163Z,17.70
2017-11-30T20:51:33.024Z,17.63
2017-11-30T20:54:00.868Z,17.00
2017-11-30T20:56:28.313Z,17.30
2017-11-30T20:58:56.140Z,17.20
2017-11-30T21:01:23.575Z,16.10
2017-11-30T21:03:51.012Z,15.50
2017-11-30T21:06:19.074Z,18.13
2017-11-30T21:08:46.487Z,17.03
2017-11-30T21:11:13.953Z,17.33
2017-11-30T21:13:41.400Z,17.43
2017-11-30T21:16:08.831Z,16.50
2017-11-30T21:18:36.257Z,16.67
2017-11-30T21:21:04.198Z,16.40
2017-11-30T21:23:31.640Z,16.40
2017-11-30T21:25:59.073Z,18.97
2017-11-30T21:28:26.836Z,17.80
2017-11-30T21:30:54.265Z,27.83
2017-11-30T21:33:21.700Z,16.70
2017-11-30T21:35:49.525Z,17.43
2017-11-30T21:38:16.965Z,15.97
2017-11-30T21:40:44.623Z,15.60
2017-11-30T21:43:12.057Z,17.17
2017-11-30T21:45:39.501Z,16.33
2017-11-30T21:48:07.335Z,16.23
2017-11-30T21:50:34.772Z,16.90
2017-11-30T21:53:02.208Z,16.07
2017-11-30T21:55:29.688Z,16.40
2017-11-30T21:57:57.121Z,17.47
2017-11-30T22:00:24.552Z,24.13
2017-11-30T22:02:51.992Z,59.33
2017-11-30T22:05:19.821Z,74.53
2017-11-30T22:07:47.264Z,65.40
2017-11-30T22:10:14.901Z,62.57
2017-11-30T22:12:42.337Z,36.23
2017-11-30T22:15:09.759Z,19.17
2017-11-30T22:17:37.603Z,24.47
2017-11-30T22:20:05.032Z,23.27
2017-11-30T22:22:32.475Z,21.07
2017-11-30T22:24:59.932Z,16.40
2017-11-30T22:27:27.360Z,17.57
2017-11-30T22:29:55.180Z,16.53
2017-11-30T22:32:22.631Z,18.60
2017-11-30T22:34:50.068Z,17.63
2017-11-30T22:37:17.519Z,18.53
2017-11-30T22:39:44.971Z,17.60
2017-11-30T22:42:12.407Z,17.13
2017-11-30T22:44:39.839Z,19.37
2017-11-30T22:47:07.700Z,19.47
2017-11-30T22:49:35.524Z,17.60
2017-11-30T22:52:02.986Z,16.60
2017-11-30T22:54:30.449Z,21.50
2017-11-30T22:56:57.882Z,31.10
2017-11-30T22:59:25.311Z,23.67
2017-11-30T23:01:52.799Z,17.10
2017-11-30T23:04:20.491Z,17.57
2017-11-30T23:06:47.932Z,17.27
2017-11-30T23:09:15.388Z,24.33
2017-11-30T23:11:42.813Z,23.03
2017-11-30T23:14:10.260Z,22.00
2017-11-30T23:16:37.696Z,21.00
2017-11-30T23:19:05.124Z,20.80
2017-11-30T23:21:32.976Z,20.67
2017-11-30T23:24:00.413Z,20.50
2017-11-30T23:26:27.846Z,18.03
2017-11-30T23:28:55.620Z,17.47
2017-11-30T23:31:23.048Z,18.43
2017-11-30T23:33:50.476Z,17.17
2017-11-30T23:36:18.591Z,18.53
2017-11-30T23:38:46.019Z,19.07
2017-11-30T23:41:13.499Z,17.73
2017-11-30T23:43:41.268Z,17.87
2017-11-30T23:46:08.713Z,64.70
2017-11-30T23:48:36.136Z,44.07
2017-11-30T23:51:03.964Z,27.00
2017-11-30T23:53:31.430Z,17.70
2017-11-30T23:55:58.849Z,17.23
2017-11-30T23:58:26.342Z,17.27
